Aérodrome :
LOGIN :

S'inscrire | Disclaimer

   EN    FR    IT 

 










Légende :    VFR   VFR Marginal   IFR   IFR Intensif   IFR Très Intensif
Visi : 
Plafond : 
>= 8 km
>= 3000ft
5 à 8 km
1000 à 3000 ft
1500m à 5 km
500 à 1000 ft
800 à 1500m
200 à 500 ft
< 800m
< 200 ft
Symboles :   Orages  Brouillard  Fortes neiges  Fortes précipitations  Vent > 20 kt
SIGMETs :   Divers  Orages  Givrage  Turbulence  Onde Orograph.  Cendres Volcan.







- Altitude de l'aérodrome : 1504 ft
- Code IATA : PNA


LEPP - Noain Pamplona

DERNIER METAR :
  • 250430Z VRB01KT 9000 BKN012 13/12 Q1019

METARs EXPIRÉS :
  • 250400Z 00000KT 9000 BKN012 12/11 Q1019
  • 250330Z 00000KT 9000 SCT014 12/11 Q1019
  • 250300Z AUTO VRB02KT 9999 BKN014/// 12/11 Q1019
  • 250230Z AUTO 17002KT 8000 FEW009/// 12/11 Q1019
  • 250200Z AUTO 00000KT 8000 FEW010/// 12/11 Q1019

TAF TAF LEPP
Valide du 25 à 03h jusqu'au 26 à 03h UTC


250200Z 2503/2603 32009KT 9999 FEW020 TX20/2515Z TN10/2505Z
TEMPO 2503/2509 3000 BR BKN010
PROB30
TEMPO 2503/2508 1500 BR BCFG BKN003
TEMPO 2510/2521 34015G25KT
PROB40
TEMPO 2518/2602 3000 BR BKN010
Pas de NOTAMs connus pour ce terrain.



MET'MAP, la Météo Aéronautique d'un coup d'oeil ! - Copyright ORBIFLY Décembre 2007 - Disclaimer

ORBIFLY MET'MAP TEAM :

Programmation & Développement : Alexandra Zaïnal
Conception & Développement : Baudouin d'Aumeries
Co-Programmation & Développement : Marc-Olivier Méhu
Soutien technique & logistique : Manuel Goepfert

Contact : metmap@orbifly.com




SOURCES & CREDITS :

   NOAA